Latest Weather Observations for Rottnest Island

IDW60901

Issued at 7:41 am WST Monday 19 April 2021 (issued every 10 minutes, with the page automatically refreshed every 10 minutes)

About weather observations | Map of Perth area stations | Latest observations for Perth area | Other Formats
Station Details ID: 009193 Name: ROTTNEST ISLAND Lat: -32.01 Lon: 115.50 Height: 43.1 m
Data from the previous 72 hours. | See also: Recent months at Rottnest Island
Date/Time
WST
Temp
°C
App
Temp
°C
Dew
Point
°C
Rel
Hum
%
Delta-T
°C
Wind Press
QNH
hPa
Press
MSL
hPa
Rain since
9am
mm
Dir  Spd
km/h
Gust
km/h
Spd
kts
Gust
kts
19/07:30am 18.4 15.2 15.3 82 1.8 SSE 26 37 14 20 1019.9 1019.8 0.0
19/07:00am 18.2 14.2 15.1 82 1.8 SSE 30 39 16 21 1019.6 1019.5 0.0
19/06:30am 18.3 14.8 15.4 83 1.7 SSE 28 35 15 19 1019.4 1019.3 0.0
19/06:00am 18.5 14.2 15.4 82 1.8 SSE 32 44 17 24 1019.1 1019.0 0.0
19/05:30am 18.6 13.6 15.1 80 2.0 SSE 35 43 19 23 1019.1 1019.0 0.0
19/05:00am 18.7 14.1 15.2 80 2.0 S 33 41 18 22 1019.2 1019.1 0.0
19/04:30am 18.8 15.1 15.1 79 2.2 SSE 28 33 15 18 1019.3 1019.2 0.0
19/04:00am 18.8 14.5 14.5 76 2.5 SSE 30 35 16 19 1019.3 1019.2 0.0
19/03:30am 19.0 13.9 13.6 71 3.1 S 33 41 18 22 1019.0 1018.9 0.0
19/03:00am 19.2 13.9 13.2 68 3.4 SSE 33 41 18 22 1019.1 1019.0 0.0
19/02:30am 19.5 13.3 12.8 65 3.8 SSE 37 46 20 25 1019.1 1019.0 0.0
19/02:00am 19.7 13.4 12.2 62 4.2 S 37 46 20 25 1019.2 1019.1 0.0
19/01:30am 19.8 13.6 12.6 63 4.1 S 37 44 20 24 1019.6 1019.5 0.0
19/01:00am 19.9 14.0 12.4 62 4.2 S 35 44 19 24 1019.6 1019.5 0.0
19/12:30am 20.0 13.4 12.5 62 4.2 S 39 44 21 24 1019.8 1019.7 0.0
19/12:00am 20.1 14.6 13.6 66 3.7 S 35 43 19 23 1020.0 1019.9 0.0
 
Date/Time
WST
Temp
°C
App
Temp
°C
Dew
Point
°C
Rel
Hum
%
Delta-T
°C
Wind Press
QNH
hPa
Press
MSL
hPa
Rain since
9am
mm
Dir  Spd
km/h
Gust
km/h
Spd
kts
Gust
kts
18/11:30pm 20.5 15.3 14.6 69 3.5 S 35 44 19 24 1020.4 1020.3 0.0
18/11:00pm 20.8 15.8 15.1 70 3.4 S 35 43 19 23 1020.7 1020.6 0.0
18/10:30pm 21.0 15.0 14.4 66 3.9 S 39 44 21 24 1020.7 1020.6 0.0
18/10:00pm 21.0 15.8 15.5 71 3.3 S 37 44 20 24 1021.1 1021.0 0.0
18/09:30pm 21.2 15.9 15.3 69 3.5 S 37 44 20 24 1021.0 1020.9 0.0
18/09:00pm 21.2 16.0 14.6 66 3.9 S 35 41 19 22 1020.9 1020.8 0.0
18/08:30pm 21.1 16.1 13.5 62 4.4 S 32 39 17 21 1020.8 1020.7 0.0
18/08:00pm 21.6 16.1 13.5 60 4.7 S 35 41 19 22 1020.8 1020.7 0.0
18/07:30pm 21.7 15.8 12.5 56 5.2 S 35 44 19 24 1020.9 1020.8 0.0
18/07:00pm 21.5 16.7 14.6 65 4.0 S 33 43 18 23 1020.8 1020.7 0.0
18/06:30pm 21.5 16.7 13.9 62 4.4 SSW 32 41 17 22 1020.7 1020.6 0.0
18/06:00pm 21.8 16.8 13.4 59 4.8 SSW 32 39 17 21 1020.6 1020.5 0.0
18/05:30pm 22.0 17.3 13.1 57 5.1 SSW 30 39 16 21 1020.6 1020.5 0.0
18/05:00pm 22.4 17.6 14.0 59 4.9 SSW 32 35 17 19 1020.5 1020.4 0.0
18/04:30pm 22.9 19.0 13.4 55 5.5 SSW 26 30 14 16 1020.5 1020.4 0.0
18/04:00pm 23.0 19.3 13.8 56 5.4 SSW 26 32 14 17 1020.7 1020.6 0.0
18/03:30pm 22.9 20.0 15.2 62 4.6 SSW 24 30 13 16 1020.7 1020.6 0.0
18/03:00pm 23.7 21.3 15.5 60 4.9 SSW 22 26 12 14 1020.8 1020.7 0.0
18/02:30pm 23.2 20.4 14.2 57 5.3 SSW 22 28 12 15 1020.7 1020.6 0.0
18/02:00pm 23.5 21.0 13.4 53 5.9 SSW 19 20 10 11 1021.0 1020.9 0.0
18/01:30pm 24.3 22.2 11.3 44 7.3 S 13 15 7 8 1021.4 1021.3 0.0
18/01:00pm 24.1 22.4 12.4 48 6.7 S 13 17 7 9 1021.8 1021.7 0.0
18/12:30pm 23.9 21.7 13.2 51 6.2 S 17 20 9 11 1022.5 1022.4 0.0
18/12:00pm 24.5 21.6 11.1 43 7.5 SSE 17 22 9 12 1023.0 1022.9 0.0
18/11:30am 24.5 21.9 10.8 42 7.7 E 15 20 8 11 1023.4 1023.3 0.0
18/11:00am 23.5 20.1 10.6 44 7.1 E 19 24 10 13 1023.7 1023.6 0.0
18/10:30am 23.3 21.1 10.7 45 7.0 ENE 13 19 7 10 1024.0 1023.9 0.0
18/10:00am 22.4 19.2 9.9 45 6.8 ENE 17 24 9 13 1024.2 1024.1 0.0
18/09:30am 21.6 18.2 10.4 49 6.1 E 19 24 10 13 1024.3 1024.2 0.0
18/09:00am 20.9 17.2 10.1 50 5.8 E 20 28 11 15 1024.5 1024.4 0.0
18/08:30am 20.3 16.7 9.8 51 5.6 E 19 26 10 14 1024.6 1024.5 0.0
18/08:00am 19.8 16.6 10.0 53 5.2 ENE 17 24 9 13 1024.7 1024.6 0.0
18/07:30am 19.2 15.9 9.7 54 5.1 ENE 17 20 9 11 1024.3 1024.2 0.0
18/07:00am 18.6 15.3 9.7 56 4.7 ENE 17 20 9 11 1024.1 1024.0 0.0
18/06:30am 18.4 15.6 10.0 58 4.5 ENE 15 19 8 10 1024.2 1024.1 0.0
18/06:00am 18.6 15.6 9.4 55 4.8 ENE 15 20 8 11 1024.0 1023.9 0.0
18/05:30am 18.5 15.5 10.6 60 4.3 E 17 20 9 11 1024.0 1023.9 0.0
18/05:00am 18.6 15.5 10.2 58 4.5 E 17 20 9 11 1023.7 1023.6 0.0
18/04:30am 18.9 15.8 10.2 57 4.7 E 17 22 9 12 1023.4 1023.3 0.0
18/04:00am 19.1 16.0 10.4 57 4.7 E 17 20 9 11 1023.3 1023.2 0.0
18/03:30am 19.4 15.7 9.6 53 5.2 E 19 22 10 12 1023.3 1023.2 0.0
18/03:00am 19.6 16.4 10.0 54 5.1 E 17 24 9 13 1023.5 1023.4 0.0
18/02:30am 20.0 15.9 8.7 48 5.9 ENE 20 28 11 15 1023.4 1023.3 0.0
18/02:00am 19.8 16.2 10.0 53 5.2 ENE 19 26 10 14 1023.7 1023.6 0.0
18/01:30am 19.7 16.5 10.1 54 5.2 E 17 24 9 13 1024.0 1023.9 0.0
18/01:00am 19.9 16.3 9.8 52 5.4 E 19 26 10 14 1024.1 1024.0 0.0
18/12:30am 19.8 17.0 10.0 53 5.3 E 15 24 8 13 1024.2 1024.1 0.0
18/12:00am 19.7 18.0 11.2 58 4.6 ESE 11 15 6 8 1024.2 1024.1 0.0
 
Date/Time
WST
Temp
°C
App
Temp
°C
Dew
Point
°C
Rel
Hum
%
Delta-T
°C
Wind Press
QNH
hPa
Press
MSL
hPa
Rain since
9am
mm
Dir  Spd
km/h
Gust
km/h
Spd
kts
Gust
kts
17/11:30pm 19.7 18.4 14.7 73 2.9 SE 15 17 8 9 1024.3 1024.2 0.0
17/11:00pm 19.8 18.1 14.6 72 3.0 SE 17 19 9 10 1024.4 1024.3 0.0
17/10:30pm 20.7 18.6 15.3 71 3.2 SE 20 24 11 13 1024.6 1024.5 0.0
17/10:00pm 20.9 19.0 15.7 72 3.1 SSE 20 26 11 14 1024.7 1024.6 0.0
17/09:30pm 21.1 18.1 15.9 72 3.1 SSE 26 32 14 17 1024.6 1024.5 0.0
17/09:00pm 21.2 18.1 16.6 75 2.8 S 28 35 15 19 1024.7 1024.6 0.0
17/08:30pm 21.4 17.6 15.7 70 3.4 S 30 35 16 19 1024.5 1024.4 0.0
17/08:00pm 21.3 17.4 15.6 70 3.4 S 30 37 16 20 1024.5 1024.4 0.0
17/07:30pm 21.3 17.3 15.2 68 3.6 S 30 35 16 19 1024.5 1024.4 0.0
17/07:00pm 21.2 16.9 15.3 69 3.5 S 32 37 17 20 1024.2 1024.1 0.0
17/06:30pm 21.3 16.7 15.2 68 3.6 S 33 39 18 21 1024.0 1023.9 0.0
17/06:00pm 21.4 16.8 13.6 61 4.5 S 30 39 16 21 1023.9 1023.8 0.0
17/05:30pm 21.4 17.4 15.3 68 3.6 S 30 39 16 21 1023.7 1023.6 0.0
17/05:00pm 21.8 18.0 14.7 64 4.2 S 28 37 15 20 1023.4 1023.3 0.0
17/04:30pm 22.1 18.5 15.2 65 4.1 S 28 35 15 19 1023.3 1023.2 0.0
17/04:00pm 22.2 19.1 15.5 66 4.0 S 26 33 14 18 1023.4 1023.3 0.0
17/03:30pm 23.2 20.5 15.5 62 4.6 S 24 30 13 16 1023.5 1023.4 0.0
17/03:00pm 23.1 20.8 14.7 59 5.0 S 20 26 11 14 1023.5 1023.4 0.0
17/02:30pm 23.1 20.4 13.0 53 5.8 S 19 20 10 11 1023.7 1023.6 0.0
17/02:00pm 23.2 20.8 12.8 52 5.9 S 17 20 9 11 1023.9 1023.8 0.0
17/01:30pm 23.8 21.5 11.8 47 6.8 SSE 15 19 8 10 1024.2 1024.1 0.0
17/01:00pm 22.6 19.9 11.7 50 6.1 S 17 20 9 11 1024.7 1024.6 0.0
17/12:30pm 23.8 21.8 10.1 42 7.5 SE 11 19 6 10 1025.1 1025.0 0.0
17/12:00pm 23.3 21.5 11.0 46 6.8 E 11 17 6 9 1025.4 1025.3 0.0
17/11:30am 22.5 20.2 10.3 46 6.7 ENE 13 20 7 11 1025.8 1025.7 0.0
17/11:00am 21.8 18.9 9.7 46 6.5 ENE 15 22 8 12 1026.0 1025.9 0.0
17/10:30am 21.1 17.9 10.0 49 6.0 E 17 22 9 12 1026.2 1026.1 0.0
17/10:00am 20.4 17.1 9.6 50 5.7 ENE 17 24 9 13 1026.3 1026.2 0.0
17/09:30am 19.8 16.1 10.0 53 5.3 E 20 28 11 15 1026.4 1026.3 0.0
17/09:00am 19.5 15.8 10.0 54 5.1 E 20 30 11 16 1026.6 1026.5 0.0
17/08:30am 19.5 16.3 10.0 54 5.1 E 17 26 9 14 1026.5 1026.4 0.0
17/08:00am 18.9 15.4 10.2 57 4.6 E 19 24 10 13 1026.4 1026.3 0.0
17/07:30am 18.2 14.5 9.5 57 4.6 E 19 24 10 13 1026.2 1026.1 0.0
17/07:00am 17.7 14.8 9.8 60 4.2 ESE 15 19 8 10 1026.1 1026.0 0.0
17/06:30am 17.4 15.0 10.1 62 3.9 ESE 13 20 7 11 1025.9 1025.8 0.0
17/06:00am 17.2 14.8 9.9 62 3.8 ESE 13 19 7 10 1025.8 1025.7 0.0
17/05:30am 17.2 14.9 10.6 65 3.5 ESE 13 17 7 9 1025.7 1025.6 0.0
17/05:00am 18.2 14.5 9.5 57 4.6 ESE 19 24 10 13 1025.7 1025.6 0.0
17/04:30am 17.9 14.7 9.8 59 4.3 ESE 17 20 9 11 1025.7 1025.6 0.0
17/04:00am 18.3 14.7 9.9 58 4.4 E 19 24 10 13 1025.6 1025.5 0.0
17/03:30am 18.3 14.5 9.9 58 4.5 E 20 26 11 14 1025.5 1025.4 0.0
17/03:00am 18.9 14.3 9.7 55 4.9 E 24 32 13 17 1025.4 1025.3 0.0
17/02:30am 19.3 14.0 9.8 54 5.1 E 28 39 15 21 1025.5 1025.4 0.0
17/02:00am 19.4 14.5 10.1 55 5.0 E 26 35 14 19 1025.3 1025.2 0.0
17/01:30am 19.6 14.2 9.5 52 5.4 E 28 35 15 19 1025.3 1025.2 0.0
17/01:00am 19.6 15.4 9.8 53 5.2 E 22 33 12 18 1025.5 1025.4 0.0
17/12:30am 19.8 14.8 9.4 51 5.5 E 26 35 14 19 1025.4 1025.3 0.0
17/12:00am 19.8 15.5 9.4 51 5.5 E 22 32 12 17 1025.5 1025.4 0.0
 
Date/Time
WST
Temp
°C
App
Temp
°C
Dew
Point
°C
Rel
Hum
%
Delta-T
°C
Wind Press
QNH
hPa
Press
MSL
hPa
Rain since
9am
mm
Dir  Spd
km/h
Gust
km/h
Spd
kts
Gust
kts
16/11:30pm 19.9 15.3 9.5 51 5.5 E 24 33 13 18 1025.6 1025.5 0.0
16/11:00pm 19.8 16.3 10.2 54 5.1 E 19 26 10 14 1025.7 1025.6 0.0
16/10:30pm 19.9 17.3 10.6 55 5.1 ESE 15 20 8 11 1025.9 1025.8 0.0
16/10:00pm 20.4 17.4 10.8 54 5.2 ESE 17 22 9 12 1025.8 1025.7 0.0
16/09:30pm 20.2 18.4 13.2 64 4.0 SE 15 20 8 11 1026.0 1025.9 0.0
16/09:00pm 20.3 18.6 13.7 66 3.8 SE 15 22 8 12 1025.8 1025.7 0.0
16/08:30pm 21.1 19.0 15.2 69 3.5 SSE 20 24 11 13 1025.7 1025.6 0.0
16/08:00pm 21.2 18.1 15.7 71 3.3 SSE 26 33 14 18 1025.4 1025.3 0.0
16/07:30pm 21.4 17.8 15.3 68 3.6 SSE 28 35 15 19 1025.1 1025.0 0.0
16/07:00pm 21.3 17.0 15.4 69 3.5 SSE 32 39 17 21 1024.9 1024.8 0.0
16/06:30pm 21.2 17.4 15.7 71 3.3 SSE 30 35 16 19 1024.7 1024.6 0.0
16/06:00pm 21.4 17.2 14.6 65 4.0 SSE 30 37 16 20 1024.3 1024.2 0.0
16/05:30pm 21.9 17.5 14.0 61 4.6 SSE 30 35 16 19 1024.2 1024.1 0.0
16/05:00pm 22.0 18.5 14.4 62 4.4 SSE 26 32 14 17 1024.1 1024.0 0.0
16/04:30pm 22.4 20.1 15.7 66 4.0 SSE 22 26 12 14 1024.1 1024.0 0.0
16/04:00pm 22.5 20.9 14.9 62 4.5 SSE 17 22 9 12 1024.2 1024.1 0.0
16/03:30pm 22.9 21.2 14.7 60 4.9 SSE 17 20 9 11 1024.2 1024.1 0.0
16/03:00pm 23.8 20.8 12.4 48 6.5 SSE 20 22 11 12 1024.1 1024.0 0.0
16/02:30pm 23.3 20.6 12.9 52 6.0 SSE 19 22 10 12 1024.1 1024.0 0.0
16/02:00pm 23.5 21.0 11.2 46 6.9 ESE 15 24 8 13 1024.1 1024.0 0.0
16/01:30pm 23.1 20.3 11.2 47 6.6 ESE 17 24 9 13 1024.2 1024.1 0.0
16/01:00pm 22.3 19.6 11.7 51 5.9 ESE 17 22 9 12 1024.6 1024.5 0.0
16/12:30pm 22.1 19.9 12.1 53 5.6 E 15 22 8 12 1025.2 1025.1 0.0
16/12:00pm 20.8 19.0 12.0 57 4.9 ESE 13 19 7 10 1025.6 1025.5 0.0
16/11:30am 20.9 18.8 12.3 58 4.8 ESE 15 24 8 13 1026.0 1025.9 0.0
16/11:00am 20.2 17.9 11.7 58 4.7 E 15 24 8 13 1026.3 1026.2 0.0
16/10:30am 20.1 16.9 11.8 59 4.6 E 20 26 11 14 1026.3 1026.2 0.0
16/10:00am 19.2 16.1 11.7 62 4.1 E 19 26 10 14 1026.7 1026.6 0.0
16/09:30am 18.7 16.0 11.8 64 3.8 E 17 24 9 13 1026.9 1026.8 0.0
16/09:00am 18.1 15.4 11.7 66 3.5 E 17 22 9 12 1026.9 1026.8 0.0
16/08:30am 17.6 14.8 11.4 67 3.4 E 17 22 9 12 1026.9 1026.8 0.0
16/08:00am 17.8 14.6 11.1 65 3.6 E 19 26 10 14 1026.8 1026.7 0.0

Latest Capital City Observations: Canberra | Sydney | Melbourne | Brisbane | Adelaide | Perth | Hobart | Darwin

Other formats

Comma delimited format used in spreadsheet applications
http://www.bom.gov.au/fwo/IDW60901/IDW60901.94602.axf

JavaScript Object Notation format (JSON) in row-major order
http://www.bom.gov.au/fwo/IDW60901/IDW60901.94602.json

Data quality

Most of these data are generated automatically and are frequently updated. Quality checks on data are not normally performed. It is possible for incorrect values to appear. Refer to information at About Latest Weather Observations and please check the disclaimer before using these data.